Time;durP1;ratioP1;P1;durP2;ratioP2;P2;SDS_P1;SDS_P2;PMS_P1;PMS_P2;Temp;Humidity;BMP_temperature;BMP_pressure;BME280_temperature;BME280_humidity;BME280_pressure;Samples;Min_cycle;Max_cycle;Signal;HPM_P1;HPM_P2
2022/01/21 00:02:13;;;;;;;9.13;5.03;;;;;;;0.13;73.90;96519.31;5014681;28;20026;-59
2022/01/21 00:04:38;;;;;;;5.68;4.53;;;;;;;-0.04;75.12;96520.78;5006905;28;20028;-60
2022/01/21 00:07:03;;;;;;;8.90;5.63;;;;;;;-0.14;74.79;96511.66;5013853;28;20390;-60
2022/01/21 00:09:29;;;;;;;8.70;5.00;;;;;;;-0.16;74.92;96514.31;5013088;28;20037;-60
2022/01/21 00:11:54;;;;;;;5.47;4.88;;;;;;;-0.25;76.09;96518.97;5013767;28;20351;-60
2022/01/21 00:14:20;;;;;;;12.90;7.93;;;;;;;-0.33;76.50;96520.09;5013893;28;20034;-59
2022/01/21 00:16:45;;;;;;;8.43;6.38;;;;;;;-0.41;76.88;96513.50;5013688;28;20026;-61
2022/01/21 00:19:14;;;;;;;7.82;5.80;;;;;;;-0.52;77.87;96517.31;5013476;28;20041;-60
2022/01/21 00:32:37;;;;;;;21.17;9.75;;;;;;;-0.34;76.16;96489.09;5013926;28;20401;-60
2022/01/21 00:35:03;;;;;;;11.23;7.43;;;;;;;-0.39;76.89;96502.19;5013359;28;20116;-60
2022/01/21 00:37:29;;;;;;;9.55;6.50;;;;;;;-0.49;77.44;96491.31;5013106;28;20081;-60
2022/01/21 00:39:58;;;;;;;11.05;7.20;;;;;;;-0.61;78.24;96492.59;5013245;28;20126;-59
2022/01/21 00:44:51;;;;;;;11.23;7.35;;;;;;;-0.75;79.29;96500.84;5013089;28;20028;-59
2022/01/21 00:47:16;;;;;;;9.43;7.38;;;;;;;-0.76;79.16;96493.16;5012215;28;20040;-60
2022/01/21 00:49:42;;;;;;;16.65;8.93;;;;;;;-0.75;79.58;96495.66;5013394;28;20507;-59
2022/01/21 00:52:08;;;;;;;13.75;8.52;;;;;;;-0.80;80.08;96488.94;5013199;28;20089;-59
2022/01/21 00:54:33;;;;;;;15.85;9.13;;;;;;;-0.84;80.37;96496.00;5012929;28;20512;-60
2022/01/21 00:56:59;;;;;;;10.95;7.95;;;;;;;-0.88;80.32;96484.91;5012926;28;20061;-60
2022/01/21 00:59:24;;;;;;;11.50;7.47;;;;;;;-0.92;81.49;96492.81;5012938;28;20409;-60
2022/01/21 01:01:49;;;;;;;9.77;6.95;;;;;;;-0.96;81.69;96491.22;5011985;28;20103;-59
2022/01/21 01:04:15;;;;;;;13.63;8.80;;;;;;;-0.98;81.48;96491.28;5012714;28;20038;-60
2022/01/21 01:06:41;;;;;;;24.17;11.05;;;;;;;-0.96;81.70;96488.63;5012978;28;20559;-59
2022/01/21 01:09:07;;;;;;;15.77;9.77;;;;;;;-0.92;81.45;96491.06;5012638;28;20113;-60
2022/01/21 01:11:48;;;;;;;13.77;8.82;;;;;;;-0.85;81.32;96496.88;5006324;28;20026;-60
2022/01/21 01:20:04;;;;;;;13.90;8.07;;;;;;;-0.77;80.13;96486.28;5012570;28;20045;-60
2022/01/21 01:22:59;;;;;;;11.07;6.72;;;;;;;-0.85;80.92;96483.97;5012532;28;20026;-60
2022/01/21 01:28:04;;;;;;;8.10;5.68;;;;;;;-0.75;80.33;96487.91;5008429;28;20073;-59
2022/01/21 01:30:32;;;;;;;5.72;5.13;;;;;;;-0.78;80.05;96490.59;5012159;28;20028;-60
2022/01/21 01:33:01;;;;;;;8.45;6.13;;;;;;;-0.68;79.55;96496.31;5011934;28;20034;-60
2022/01/21 01:35:31;;;;;;;7.10;4.95;;;;;;;-0.64;79.21;96487.53;5012055;28;20025;-60
2022/01/21 01:40:34;;;;;;;15.57;7.97;;;;;;;-0.60;79.28;96478.75;5012198;28;20045;-60
2022/01/21 01:50:58;;;;;;;5.57;4.80;;;;;;;-0.66;79.91;96486.75;5012055;28;20029;-60
2022/01/21 01:53:29;;;;;;;5.70;4.72;;;;;;;-0.63;79.86;96494.41;5012201;28;20481;-60
2022/01/21 01:55:55;;;;;;;7.93;4.32;;;;;;;-0.18;77.58;96479.03;5011541;28;20489;-61
2022/01/21 01:58:21;;;;;;;4.57;4.00;;;;;;;-0.09;76.51;96489.06;5011404;28;20069;-60
2022/01/21 02:00:47;;;;;;;10.20;4.65;;;;;;;0.04;76.25;96478.22;5011644;28;20445;-61
2022/01/21 02:03:14;;;;;;;4.95;4.35;;;;;;;0.01;75.64;96475.75;5011747;28;20101;-60
2022/01/21 02:05:41;;;;;;;4.82;4.25;;;;;;;-0.11;75.43;96470.16;5007959;28;20025;-60
2022/01/21 02:08:07;;;;;;;5.30;3.97;;;;;;;-0.02;75.58;96463.75;5011564;28;20116;-60
2022/01/21 02:10:34;;;;;;;7.20;3.90;;;;;;;0.04;74.23;96463.53;5011578;28;20022;-60
2022/01/21 02:13:05;;;;;;;5.47;3.80;;;;;;;0.00;74.29;96459.38;5011486;28;20038;-60
2022/01/21 02:15:37;;;;;;;5.25;2.83;;;;;;;0.12;73.38;96458.06;5010021;28;20080;-59
2022/01/21 02:23:31;;;;;;;3.72;3.28;;;;;;;0.01;72.69;96458.47;5009443;28;20040;-60
2022/01/21 02:25:57;;;;;;;3.67;3.35;;;;;;;0.02;71.98;96451.53;5011564;28;20034;-60
2022/01/21 02:28:22;;;;;;;4.45;3.92;;;;;;;0.07;72.81;96447.03;5011245;28;20029;-60
2022/01/21 02:30:56;;;;;;;3.72;3.30;;;;;;;0.02;72.10;96448.97;5011014;28;20037;-60
2022/01/21 02:33:22;;;;;;;3.85;3.55;;;;;;;0.08;71.78;96440.94;4993920;28;20022;-60
2022/01/21 02:35:48;;;;;;;3.80;3.60;;;;;;;0.16;70.96;96443.25;5010939;28;20030;-60
2022/01/21 02:38:14;;;;;;;6.80;3.30;;;;;;;0.12;71.47;96445.97;5011671;28;20496;-60
2022/01/21 02:40:39;;;;;;;4.85;2.97;;;;;;;0.17;69.83;96439.75;5011088;28;20022;-60
2022/01/21 02:43:05;;;;;;;3.70;3.17;;;;;;;0.06;70.62;96451.38;5011091;28;20499;-60
2022/01/21 02:45:31;;;;;;;5.45;3.05;;;;;;;0.18;70.29;96455.25;5011038;28;20042;-60
2022/01/21 02:47:56;;;;;;;2.90;2.70;;;;;;;-0.10;71.09;96445.94;5011067;28;20022;-60
2022/01/21 02:50:21;;;;;;;3.40;3.10;;;;;;;0.10;70.02;96441.72;5011392;28;20033;-60
2022/01/21 02:52:56;;;;;;;4.50;3.28;;;;;;;0.06;70.14;96442.75;5010838;28;20053;-60
2022/01/21 02:55:24;;;;;;;4.45;3.13;;;;;;;-0.08;70.46;96438.97;5007868;28;20030;-60
2022/01/21 02:57:50;;;;;;;5.88;3.25;;;;;;;-0.18;70.77;96432.44;5010807;28;20030;-60
2022/01/21 03:00:16;;;;;;;6.35;3.25;;;;;;;-0.04;69.81;96429.31;5010832;28;20091;-60
2022/01/21 03:02:41;;;;;;;4.90;3.22;;;;;;;-0.07;69.91;96435.47;5010830;28;20029;-60
2022/01/21 03:05:13;;;;;;;4.13;3.00;;;;;;;-0.02;69.97;96430.97;5010876;28;20561;-60
2022/01/21 03:07:38;;;;;;;3.63;3.28;;;;;;;-0.17;70.28;96434.13;5002840;28;20096;-60
2022/01/21 03:10:05;;;;;;;4.38;3.45;;;;;;;-0.19;69.84;96433.34;5010747;28;20030;-60
2022/01/21 03:12:30;;;;;;;5.72;3.50;;;;;;;-0.33;71.00;96439.03;5014935;28;20033;-59
2022/01/21 03:14:56;;;;;;;5.32;3.90;;;;;;;-0.32;70.94;96438.97;5014824;28;20018;-60
2022/01/21 03:17:21;;;;;;;5.07;3.28;;;;;;;-0.24;71.07;96432.66;5014923;28;20505;-61
2022/01/21 03:19:46;;;;;;;3.60;3.30;;;;;;;-0.41;71.62;96430.72;5014595;28;20026;-60
2022/01/21 03:22:13;;;;;;;3.78;3.40;;;;;;;-0.55;72.36;96437.22;5014717;28;20504;-60
2022/01/21 03:24:38;;;;;;;4.78;3.65;;;;;;;-0.62;73.08;96428.84;5014546;28;20029;-60
2022/01/21 03:27:04;;;;;;;7.07;3.67;;;;;;;-0.56;72.04;96430.34;5014767;28;20397;-60
2022/01/21 03:29:29;;;;;;;3.72;3.35;;;;;;;-0.64;72.10;96433.22;5007628;28;20397;-60
2022/01/21 03:31:54;;;;;;;6.00;3.28;;;;;;;-0.70;72.23;96430.84;5014853;28;20026;-60
2022/01/21 03:34:20;;;;;;;4.60;3.42;;;;;;;-0.76;72.75;96429.31;5014465;28;20037;-60
2022/01/21 03:36:45;;;;;;;3.53;3.22;;;;;;;-0.84;73.22;96430.50;5014359;28;20078;-60
2022/01/21 03:39:11;;;;;;;4.53;3.67;;;;;;;-0.72;73.10;96427.50;5014361;28;20500;-61
2022/01/21 03:41:36;;;;;;;5.70;4.07;;;;;;;-0.88;73.62;96438.34;5014357;28;20025;-60
2022/01/21 03:44:02;;;;;;;5.60;3.58;;;;;;;-0.95;73.97;96439.47;5014543;28;20018;-60
2022/01/21 03:46:27;;;;;;;3.60;3.25;;;;;;;-1.01;74.09;96439.66;5014046;28;20034;-60
2022/01/21 03:48:52;;;;;;;4.20;3.80;;;;;;;-1.11;75.30;96436.53;5012786;28;20026;-59
2022/01/21 03:51:19;;;;;;;4.38;3.13;;;;;;;-1.21;76.01;96435.19;5014125;28;20018;-60
2022/01/21 03:53:46;;;;;;;3.83;3.40;;;;;;;-1.31;76.61;96438.09;5014047;28;20021;-59
2022/01/21 03:56:13;;;;;;;12.73;6.63;;;;;;;-1.37;76.96;96440.03;5013328;28;20029;-59
2022/01/21 03:58:38;;;;;;;9.48;4.65;;;;;;;-1.31;76.90;96447.56;5013854;28;20030;-60
2022/01/21 04:01:04;;;;;;;5.60;3.70;;;;;;;-1.35;77.86;96433.06;5013943;28;20037;-59
2022/01/21 04:03:30;;;;;;;4.00;3.70;;;;;;;-1.39;77.84;96434.91;5013961;28;20512;-59
2022/01/21 04:05:55;;;;;;;4.47;3.90;;;;;;;-1.41;77.95;96428.09;5013690;28;20044;-61
2022/01/21 04:08:21;;;;;;;4.88;4.20;;;;;;;-1.36;77.94;96431.38;5013856;28;20500;-59
2022/01/21 04:10:48;;;;;;;4.78;3.88;;;;;;;-1.22;77.57;96428.34;5014026;28;20028;-59
2022/01/21 04:13:16;;;;;;;8.23;4.90;;;;;;;-1.22;77.35;96436.09;5013822;28;20512;-59
2022/01/21 04:15:43;;;;;;;6.90;3.63;;;;;;;-1.14;75.86;96430.66;5013566;28;20026;-59
2022/01/21 04:18:10;;;;;;;10.93;5.55;;;;;;;-1.06;75.52;96429.50;5009359;28;20056;-59
2022/01/21 04:20:36;;;;;;;8.15;4.55;;;;;;;-1.04;75.79;96430.28;5013698;28;20105;-59
2022/01/21 04:23:01;;;;;;;9.48;4.95;;;;;;;-0.99;75.91;96435.31;5013343;28;20160;-59
2022/01/21 04:25:27;;;;;;;7.28;3.90;;;;;;;-1.02;76.39;96433.66;5013401;28;20030;-60
2022/01/21 04:27:52;;;;;;;4.10;3.70;;;;;;;-1.06;76.25;96428.66;5013425;28;20021;-60
2022/01/21 04:30:18;;;;;;;5.22;3.45;;;;;;;-1.03;76.16;96423.38;5013525;28;20032;-59
2022/01/21 04:32:43;;;;;;;5.05;3.97;;;;;;;-1.12;76.16;96424.53;5013950;28;20469;-60
2022/01/21 04:35:09;;;;;;;7.13;4.68;;;;;;;-1.05;75.46;96428.59;5013280;28;20026;-60
2022/01/21 04:37:38;;;;;;;6.10;4.15;;;;;;;-0.91;74.17;96432.44;5013393;28;20398;-60
2022/01/21 04:40:11;;;;;;;7.90;4.47;;;;;;;-1.03;75.40;96434.56;5013030;28;20028;-59
2022/01/21 04:48:05;;;;;;;4.38;3.70;;;;;;;-1.26;76.54;96419.81;5010539;28;20169;-60
2022/01/21 04:50:39;;;;;;;10.93;5.18;;;;;;;-1.33;76.65;96421.78;5013578;28;20030;-60
2022/01/21 04:53:06;;;;;;;7.07;4.82;;;;;;;-1.43;77.46;96424.72;5013036;28;20410;-59
2022/01/21 04:55:33;;;;;;;6.63;4.07;;;;;;;-1.61;78.57;96427.84;5012986;28;20537;-60
2022/01/21 04:57:59;;;;;;;4.53;3.72;;;;;;;-1.71;78.97;96441.94;5010913;28;20036;-60
2022/01/21 05:00:24;;;;;;;6.60;3.92;;;;;;;-1.75;79.48;96438.63;5012879;28;20033;-59
2022/01/21 05:02:50;;;;;;;6.00;4.03;;;;;;;-1.79;79.04;96449.94;5013221;28;20038;-59
2022/01/21 05:05:15;;;;;;;4.97;3.47;;;;;;;-1.81;79.06;96445.69;5012705;28;20030;-59
2022/01/21 05:07:41;;;;;;;6.20;3.53;;;;;;;-1.85;79.22;96450.13;5011544;28;20029;-59
2022/01/21 05:10:08;;;;;;;4.32;3.65;;;;;;;-1.80;78.82;96447.38;5012569;28;20041;-60
2022/01/21 05:12:33;;;;;;;4.10;3.78;;;;;;;-1.82;79.33;96454.34;5012692;28;20080;-60
2022/01/21 05:17:25;;;;;;;4.25;3.47;;;;;;;-1.91;79.31;96458.91;5011809;28;20042;-60
2022/01/21 05:19:52;;;;;;;4.65;4.00;;;;;;;-1.95;80.61;96461.59;5004281;28;20477;-59
2022/01/21 05:22:17;;;;;;;5.93;4.03;;;;;;;-1.96;79.67;96472.81;5011671;28;20084;-60
2022/01/21 05:24:43;;;;;;;4.65;4.15;;;;;;;-2.01;79.78;96485.84;5012323;28;20033;-59
2022/01/21 05:27:11;;;;;;;7.03;3.85;;;;;;;-1.84;78.87;96497.44;5012299;28;20448;-60
2022/01/21 05:29:36;;;;;;;3.78;3.40;;;;;;;-1.57;76.72;96498.31;5011061;28;20042;-59
2022/01/21 05:32:04;;;;;;;4.68;3.50;;;;;;;-1.58;76.59;96491.47;5012719;28;20038;-60
2022/01/21 05:34:29;;;;;;;3.30;3.10;;;;;;;-1.33;74.99;96486.38;5011874;28;20030;-59
2022/01/21 05:36:55;;;;;;;5.88;3.90;;;;;;;-1.20;73.71;96470.47;5012234;28;20516;-60
2022/01/21 05:39:21;;;;;;;4.85;3.60;;;;;;;-1.23;73.40;96480.91;5012069;28;20470;-60
2022/01/21 05:41:50;;;;;;;4.43;3.50;;;;;;;-1.24;73.78;96481.81;5012072;28;20056;-60
2022/01/21 05:46:23;;;;;;;6.22;3.35;;;;;;;-1.41;74.02;96475.44;5012046;28;20025;-59
2022/01/21 05:47:06;;;;;;;8.57;3.15;;;;;;;-1.38;73.24;96475.34;5011858;28;20034;-60
2022/01/21 05:49:33;;;;;;;7.63;4.05;;;;;;;-1.35;73.74;96466.66;5012447;28;20030;-59
2022/01/21 05:52:19;;;;;;;5.97;3.92;;;;;;;-1.39;74.08;96478.81;5004820;28;20046;-59
2022/01/21 05:54:46;;;;;;;7.18;4.28;;;;;;;-1.35;73.60;96484.72;5011717;28;20101;-60
2022/01/21 05:57:13;;;;;;;4.03;3.63;;;;;;;-1.40;73.80;96482.28;5011957;28;20026;-59
2022/01/21 05:59:40;;;;;;;4.25;3.47;;;;;;;-1.46;73.72;96483.31;5011789;28;20026;-59
2022/01/21 06:02:06;;;;;;;4.95;4.15;;;;;;;-1.50;74.05;96475.75;5012236;28;20387;-59
2022/01/21 06:04:33;;;;;;;6.53;4.07;;;;;;;-1.39;73.18;96477.97;5011671;28;20034;-59
2022/01/21 06:07:00;;;;;;;4.13;3.47;;;;;;;-1.42;73.05;96478.91;5009916;28;20030;-59
2022/01/21 06:09:27;;;;;;;5.38;4.60;;;;;;;-1.38;73.11;96487.41;5009283;28;20402;-60
2022/01/21 06:11:52;;;;;;;4.22;3.78;;;;;;;-1.35;72.76;96484.72;5011061;28;20038;-58
2022/01/21 06:14:18;;;;;;;4.43;3.40;;;;;;;-1.38;73.29;96479.66;5010447;28;20539;-59
2022/01/21 06:16:43;;;;;;;6.80;3.33;;;;;;;-1.32;73.35;96484.63;5010457;28;20026;-59
2022/01/21 06:19:09;;;;;;;6.65;4.30;;;;;;;-0.97;72.17;96485.22;5010175;28;20032;-59
2022/01/21 06:21:34;;;;;;;4.97;3.70;;;;;;;-1.00;71.35;96487.88;5010616;28;20160;-59
2022/01/21 06:24:00;;;;;;;6.38;3.83;;;;;;;-0.99;71.41;96492.19;5011331;28;20382;-58
2022/01/21 06:26:25;;;;;;;6.32;3.30;;;;;;;-0.97;71.56;96499.88;5006497;28;20069;-59
2022/01/21 06:28:50;;;;;;;3.75;3.00;;;;;;;-0.85;71.30;96488.28;5011298;28;20026;-59
2022/01/21 06:31:16;;;;;;;5.35;3.72;;;;;;;-0.75;70.02;96497.41;5010775;28;20037;-60
2022/01/21 06:33:41;;;;;;;3.92;3.00;;;;;;;-0.61;70.09;96507.28;5011438;28;20044;-60
2022/01/21 06:36:06;;;;;;;3.53;3.15;;;;;;;-0.74;70.56;96509.44;5011335;28;20608;-59
2022/01/21 06:38:32;;;;;;;5.70;3.65;;;;;;;-0.69;70.35;96506.69;5010673;28;20033;-59
2022/01/21 06:40:57;;;;;;;5.50;3.35;;;;;;;-0.73;69.53;96513.72;5010981;28;20530;-59
2022/01/21 06:43:23;;;;;;;3.30;3.00;;;;;;;-0.65;69.75;96509.13;5007074;28;20112;-59
2022/01/21 06:45:48;;;;;;;4.45;3.10;;;;;;;-0.81;70.24;96505.38;5009795;28;20033;-58
2022/01/21 06:48:14;;;;;;;6.68;3.30;;;;;;;-0.92;70.27;96506.59;5010367;28;20101;-58
2022/01/21 06:50:42;;;;;;;3.65;3.25;;;;;;;-0.97;70.38;96505.03;5009703;28;20164;-59
2022/01/21 06:53:08;;;;;;;6.20;5.60;;;;;;;-1.03;70.76;96501.78;5010793;28;20053;-59
2022/01/21 06:55:34;;;;;;;8.65;5.07;;;;;;;-1.07;71.13;96507.09;5009455;28;20481;-60
2022/01/21 06:57:59;;;;;;;3.58;3.05;;;;;;;-1.07;70.97;96509.66;5007307;28;20033;-60
2022/01/21 07:00:25;;;;;;;7.22;5.35;;;;;;;-1.11;71.12;96508.09;5009864;28;20030;-59
2022/01/21 07:02:53;;;;;;;8.38;4.85;;;;;;;-1.12;71.72;96516.75;5010870;28;20025;-59
2022/01/21 07:05:20;;;;;;;7.38;6.18;;;;;;;-1.09;72.38;96520.09;5010115;28;20073;-59
2022/01/21 07:07:45;;;;;;;8.77;6.50;;;;;;;-1.21;73.05;96533.38;5009406;28;20505;-59
2022/01/21 07:10:13;;;;;;;5.68;4.60;;;;;;;-1.26;73.89;96535.28;5010277;28;20108;-58
2022/01/21 07:12:40;;;;;;;7.63;4.63;;;;;;;-1.23;74.17;96535.19;5011224;28;20104;-58
2022/01/21 07:15:07;;;;;;;4.93;3.80;;;;;;;-1.25;73.18;96537.78;5011127;28;20501;-58
2022/01/21 07:17:32;;;;;;;6.57;4.28;;;;;;;-1.31;73.78;96538.84;5010622;28;20042;-57
2022/01/21 07:19:58;;;;;;;6.32;4.05;;;;;;;-1.31;73.71;96544.03;5009724;28;20795;-58
2022/01/21 07:22:23;;;;;;;4.93;3.65;;;;;;;-1.31;73.28;96543.16;5008364;28;20022;-59
2022/01/21 07:24:48;;;;;;;4.50;4.05;;;;;;;-1.29;72.98;96541.38;5009693;28;20036;-59
2022/01/21 07:27:14;;;;;;;4.85;3.78;;;;;;;-1.32;72.65;96556.97;5010318;28;20025;-59
2022/01/21 07:29:39;;;;;;;5.70;4.32;;;;;;;-1.20;73.03;96556.59;5010155;28;20042;-59
2022/01/21 07:32:05;;;;;;;10.23;5.47;;;;;;;-1.06;72.46;96569.09;5011019;28;20018;-59
2022/01/21 07:34:31;;;;;;;9.32;5.78;;;;;;;-1.17;72.92;96579.75;5010941;28;20073;-59
2022/01/21 07:36:56;;;;;;;9.90;4.97;;;;;;;-1.16;72.95;96585.75;5010540;28;20029;-59
2022/01/21 07:39:22;;;;;;;12.70;7.47;;;;;;;-1.18;73.46;96596.16;5010494;28;20037;-59
2022/01/21 07:41:48;;;;;;;13.57;6.88;;;;;;;-1.31;74.29;96598.28;5010637;28;20022;-59
2022/01/21 07:44:15;;;;;;;8.93;6.50;;;;;;;-1.34;74.81;96592.34;5010257;28;20315;-59
2022/01/21 07:46:42;;;;;;;9.43;6.22;;;;;;;-1.41;75.11;96585.69;5010615;28;20378;-59
2022/01/21 07:49:07;;;;;;;9.93;5.45;;;;;;;-1.40;74.67;96584.78;5009802;28;20533;-58
2022/01/21 07:51:33;;;;;;;10.40;7.28;;;;;;;-1.34;74.45;96574.25;5010799;28;20064;-59
2022/01/21 07:53:59;;;;;;;7.97;5.43;;;;;;;-1.29;74.01;96577.53;5009990;28;20022;-59
2022/01/21 07:56:24;;;;;;;12.77;6.30;;;;;;;-1.36;72.56;96579.47;5009641;28;20056;-58
2022/01/21 07:58:51;;;;;;;12.73;7.15;;;;;;;-1.33;71.83;96581.13;5012758;28;20113;-59
2022/01/21 08:01:17;;;;;;;14.02;9.13;;;;;;;-1.28;71.79;96593.91;5013350;28;20494;-59
2022/01/21 08:03:42;;;;;;;7.53;5.35;;;;;;;-1.28;71.81;96588.75;5013168;28;20101;-59
2022/01/21 08:06:07;;;;;;;17.00;8.95;;;;;;;-1.31;71.54;96598.28;5012334;28;20026;-59
2022/01/21 08:08:33;;;;;;;6.13;4.68;;;;;;;-1.29;71.36;96587.88;5013449;28;20037;-57
2022/01/21 08:10:59;;;;;;;10.63;6.68;;;;;;;-1.27;71.22;96580.94;5013380;28;20057;-58
2022/01/21 08:13:24;;;;;;;5.18;4.18;;;;;;;-1.17;71.29;96590.09;5013762;28;20022;-59
2022/01/21 08:15:49;;;;;;;8.38;7.03;;;;;;;-1.28;71.85;96586.16;5012661;28;20133;-59
2022/01/21 08:18:15;;;;;;;11.90;9.45;;;;;;;-1.35;72.94;96590.66;5010619;28;20053;-59
2022/01/21 08:20:42;;;;;;;24.10;11.68;;;;;;;-1.34;73.27;96593.19;5012776;28;20030;-59
2022/01/21 08:23:09;;;;;;;17.23;12.20;;;;;;;-1.36;73.68;96597.56;5012537;28;20021;-59
2022/01/21 08:25:35;;;;;;;17.15;11.40;;;;;;;-1.45;73.93;96593.50;5011909;28;20092;-59
2022/01/21 08:28:00;;;;;;;12.50;8.40;;;;;;;-1.35;73.77;96596.66;5011408;28;20086;-53
2022/01/21 08:30:26;;;;;;;12.02;7.13;;;;;;;-1.39;74.24;96594.25;5013118;28;20037;-47
2022/01/21 08:32:51;;;;;;;11.52;6.68;;;;;;;-1.33;74.33;96600.06;5015974;28;20474;-48
2022/01/21 08:35:17;;;;;;;9.95;6.82;;;;;;;-1.34;73.37;96600.09;5011904;28;20026;-52
2022/01/21 08:37:42;;;;;;;13.55;9.05;;;;;;;-1.31;73.11;96606.03;5011627;28;20038;-50
2022/01/21 08:40:09;;;;;;;8.38;6.00;;;;;;;-1.28;72.92;96610.25;5013223;28;20481;-52
2022/01/21 08:42:34;;;;;;;7.22;6.50;;;;;;;-1.09;72.77;96620.03;5013513;28;20857;-53
2022/01/21 08:44:59;;;;;;;14.07;7.10;;;;;;;-1.09;72.91;96626.06;5013410;28;20121;-50
2022/01/21 08:47:25;;;;;;;8.02;6.43;;;;;;;-0.99;72.58;96618.00;5013321;28;20456;-51
2022/01/21 08:49:51;;;;;;;7.53;5.32;;;;;;;-0.67;70.96;96622.13;5013490;28;20021;-50
2022/01/21 08:52:22;;;;;;;8.35;6.32;;;;;;;-0.76;70.71;96610.34;5014132;28;20112;-52
2022/01/21 08:54:49;;;;;;;12.32;7.53;;;;;;;-0.79;71.46;96613.03;5013584;28;20129;-50
2022/01/21 08:57:15;;;;;;;7.35;5.85;;;;;;;-0.89;71.05;96620.25;5023210;28;20390;-51
2022/01/21 08:59:41;;;;;;;7.55;5.80;;;;;;;-0.83;69.88;96629.56;5033335;28;20021;-52
2022/01/21 09:02:07;;;;;;;12.60;6.53;;;;;;;-0.84;70.00;96637.34;5033184;28;20088;-48
2022/01/21 09:04:33;;;;;;;11.27;5.18;;;;;;;-0.81;70.29;96635.53;5033131;28;20505;-52
2022/01/21 09:06:58;;;;;;;8.20;4.43;;;;;;;-0.80;70.65;96641.53;5032365;28;20064;-51
2022/01/21 09:09:25;;;;;;;5.78;4.15;;;;;;;-0.77;71.03;96646.63;5013493;28;20442;-54
2022/01/21 09:11:52;;;;;;;8.13;4.55;;;;;;;-0.68;70.34;96654.06;5011620;28;20121;-51
2022/01/21 09:14:17;;;;;;;6.43;4.22;;;;;;;-0.60;69.67;96652.06;5023002;28;20036;-52
2022/01/21 09:16:43;;;;;;;6.70;3.78;;;;;;;-0.33;68.73;96662.44;5032968;28;20037;-53
2022/01/21 09:19:08;;;;;;;9.75;4.43;;;;;;;-0.27;67.88;96663.13;5032878;28;20026;-52
2022/01/21 09:21:37;;;;;;;7.00;5.22;;;;;;;-0.38;68.45;96672.06;5032904;28;20025;-51
2022/01/21 09:24:05;;;;;;;15.68;7.85;;;;;;;-0.48;68.69;96657.75;5006273;28;20030;-50
2022/01/21 09:26:30;;;;;;;19.92;11.60;;;;;;;-0.49;68.71;96671.59;5011681;28;20446;-52
2022/01/21 09:28:58;;;;;;;9.15;5.50;;;;;;;-0.37;68.70;96662.59;5011146;28;20109;-51
2022/01/21 09:31:25;;;;;;;17.23;8.82;;;;;;;-0.18;67.98;96655.03;5011682;28;20393;-50
2022/01/21 09:33:51;;;;;;;27.38;14.02;;;;;;;-0.22;67.09;96656.03;5011909;28;20030;-51
2022/01/21 09:36:18;;;;;;;12.15;6.68;;;;;;;-0.34;67.43;96655.53;5012085;28;20039;-53
2022/01/21 09:38:43;;;;;;;7.95;5.75;;;;;;;-0.26;67.25;96657.03;5010875;28;20046;-53
2022/01/21 09:41:09;;;;;;;13.13;8.27;;;;;;;-0.27;67.41;96650.19;5011213;28;20137;-53
2022/01/21 09:43:37;;;;;;;14.88;6.47;;;;;;;-0.24;67.09;96657.84;5024442;28;20027;-51
2022/01/21 09:46:05;;;;;;;16.40;10.27;;;;;;;-0.21;66.82;96652.56;5012440;28;20069;-51
2022/01/21 09:48:36;;;;;;;11.40;8.43;;;;;;;-0.23;66.61;96639.66;5011909;28;20052;-52
2022/01/21 09:51:02;;;;;;;7.63;6.18;;;;;;;-0.15;66.86;96644.56;5007429;28;20026;-53
2022/01/21 09:53:31;;;;;;;9.23;6.68;;;;;;;-0.10;66.32;96647.88;5010523;28;20125;-51
2022/01/21 09:55:59;;;;;;;6.80;5.88;;;;;;;-0.05;66.22;96645.97;5010382;28;20036;-52
2022/01/21 09:58:27;;;;;;;7.50;4.97;;;;;;;0.05;66.05;96650.81;5008202;28;20096;-52
2022/01/21 10:00:55;;;;;;;6.93;4.35;;;;;;;0.08;65.83;96655.88;5010888;28;20025;-51
2022/01/21 10:03:22;;;;;;;5.30;4.25;;;;;;;0.16;65.86;96658.19;5010260;28;20033;-50
2022/01/21 10:05:48;;;;;;;8.95;4.32;;;;;;;0.14;65.17;96671.22;5009114;28;20033;-48
2022/01/21 10:08:15;;;;;;;6.95;4.22;;;;;;;0.16;65.78;96659.06;5010644;28;20075;-50
2022/01/21 10:10:43;;;;;;;4.47;3.90;;;;;;;0.23;65.88;96664.88;5010957;28;20060;-50
2022/01/21 10:13:09;;;;;;;8.43;4.18;;;;;;;0.20;65.08;96659.78;5010142;28;20098;-49
2022/01/21 10:15:37;;;;;;;5.10;4.03;;;;;;;0.25;65.17;96663.91;5010383;28;20161;-52
2022/01/21 10:18:11;;;;;;;6.35;4.10;;;;;;;0.30;64.27;96670.66;5010031;28;20045;-50
2022/01/21 10:20:37;;;;;;;7.88;4.72;;;;;;;0.20;64.96;96665.81;5009003;28;20409;-51
2022/01/21 10:23:07;;;;;;;6.32;4.50;;;;;;;0.28;64.76;96663.78;5010034;28;20022;-51
2022/01/21 10:25:36;;;;;;;31.67;15.57;;;;;;;0.31;64.85;96664.56;5008872;28;20048;-54
2022/01/21 10:28:19;;;;;;;30.52;13.70;;;;;;;0.32;64.31;96671.44;5009371;28;20447;-54
2022/01/21 10:30:48;;;;;;;24.67;11.18;;;;;;;0.45;64.15;96670.13;5008478;28;20507;-54
2022/01/21 10:33:24;;;;;;;51.85;23.38;;;;;;;0.50;63.53;96675.13;5008481;28;20018;-54
2022/01/21 10:36:05;;;;;;;9.20;6.32;;;;;;;0.57;63.54;96672.28;5009777;28;20026;-53
2022/01/21 10:38:31;;;;;;;17.08;8.63;;;;;;;0.61;63.50;96678.16;5009021;28;20030;-53
2022/01/21 10:41:08;;;;;;;15.57;7.93;;;;;;;0.63;63.25;96680.72;5008370;28;20071;-53
2022/01/21 10:43:34;;;;;;;16.48;8.77;;;;;;;0.73;63.54;96678.63;5009508;28;20026;-50
2022/01/21 10:46:01;;;;;;;17.17;9.27;;;;;;;0.78;62.74;96684.47;5008589;28;20077;-51
2022/01/21 10:48:28;;;;;;;22.85;9.60;;;;;;;0.87;62.19;96691.06;5010361;28;20129;-50
2022/01/21 10:51:20;;;;;;;16.13;7.57;;;;;;;0.83;62.23;96683.41;5010448;28;20249;-52
2022/01/21 10:53:45;;;;;;;23.73;9.30;;;;;;;0.87;62.47;96689.31;5010685;28;20104;-51
2022/01/21 10:56:15;;;;;;;15.50;8.02;;;;;;;0.89;62.29;96689.28;5010651;28;20109;-50
2022/01/21 10:58:46;;;;;;;15.25;7.07;;;;;;;0.87;62.38;96694.50;5010745;28;20030;-52
2022/01/21 11:01:17;;;;;;;8.63;5.53;;;;;;;0.85;62.76;96698.91;5009805;28;20515;-54
2022/01/21 11:04:08;;;;;;;9.15;4.57;;;;;;;0.95;62.88;96699.41;5010551;28;20121;-50
2022/01/21 11:06:47;;;;;;;7.50;4.65;;;;;;;0.99;61.83;96699.22;5009556;28;20036;-53
2022/01/21 11:09:22;;;;;;;21.50;8.52;;;;;;;0.99;62.47;96709.59;5009226;28;20061;-51
2022/01/21 11:12:05;;;;;;;7.80;4.50;;;;;;;1.02;61.21;96708.66;5009252;28;20034;-53
2022/01/21 11:14:31;;;;;;;13.50;5.47;;;;;;;1.07;61.21;96719.69;5008079;28;20038;-50
2022/01/21 11:17:05;;;;;;;11.07;6.63;;;;;;;0.96;61.30;96711.47;5009011;28;20045;-51
2022/01/21 11:19:34;;;;;;;27.00;10.40;;;;;;;0.91;61.50;96710.78;5009519;28;20056;-50
2022/01/21 11:22:04;;;;;;;8.23;4.95;;;;;;;1.05;61.63;96711.13;5010312;28;20105;-49
2022/01/21 11:24:29;;;;;;;18.23;10.05;;;;;;;1.10;62.19;96714.38;5009811;28;20464;-51
2022/01/21 11:27:07;;;;;;;27.95;14.82;;;;;;;1.03;61.02;96718.13;5010629;28;20030;-51
2022/01/21 11:29:34;;;;;;;14.82;9.30;;;;;;;1.13;61.24;96719.47;5008234;28;20066;-49
2022/01/21 11:31:59;;;;;;;34.97;14.98;;;;;;;1.18;61.66;96708.91;5010722;28;20041;-50
2022/01/21 11:34:24;;;;;;;18.20;8.73;;;;;;;1.31;61.11;96711.88;5013703;28;20034;-48
2022/01/21 11:36:50;;;;;;;21.60;9.85;;;;;;;1.35;61.00;96713.44;5014188;28;20563;-49
2022/01/21 11:39:21;;;;;;;11.55;5.70;;;;;;;1.43;60.37;96716.56;5011713;28;20025;-50
2022/01/21 11:41:50;;;;;;;8.15;5.43;;;;;;;1.47;59.88;96714.69;5012306;28;20100;-50
2022/01/21 11:44:19;;;;;;;7.07;4.20;;;;;;;1.44;58.84;96712.25;5014221;28;20068;-49
2022/01/21 11:47:01;;;;;;;17.15;5.75;;;;;;;1.35;58.31;96708.25;5013565;28;20125;-49
2022/01/21 11:49:28;;;;;;;4.60;4.20;;;;;;;1.38;58.97;96722.88;5013131;28;20551;-49
2022/01/21 11:52:14;;;;;;;7.53;5.30;;;;;;;1.40;58.19;96721.06;5013868;28;20034;-49
2022/01/21 11:54:40;;;;;;;20.70;10.70;;;;;;;1.38;58.78;96728.06;5013687;28;20061;-49
2022/01/21 11:57:07;;;;;;;6.53;4.97;;;;;;;1.54;58.13;96728.28;5012482;28;20037;-49
2022/01/21 12:02:29;;;;;;;6.28;3.60;;;;;;;1.56;58.01;96729.94;5003926;28;20038;-49
2022/01/21 12:05:03;;;;;;;27.25;14.05;;;;;;;1.53;58.18;96726.59;5012789;28;20061;-48
2022/01/21 12:07:35;;;;;;;14.55;7.78;;;;;;;1.59;57.25;96723.75;5011910;28;20062;-49
2022/01/21 12:10:08;;;;;;;3.80;3.33;;;;;;;1.89;55.48;96728.63;5012127;28;20523;-48
2022/01/21 12:15:48;;;;;;;22.77;11.95;;;;;;;1.49;56.62;96740.63;5012527;28;20058;-49
2022/01/21 12:21:34;;;;;;;7.60;4.65;;;;;;;1.47;57.26;96727.69;5011465;28;20096;-52
2022/01/21 12:24:00;;;;;;;8.85;4.30;;;;;;;1.50;56.75;96719.78;5011333;28;20351;-51
2022/01/21 12:26:27;;;;;;;10.68;5.60;;;;;;;1.54;57.08;96728.28;5012992;28;20462;-49
2022/01/21 12:28:53;;;;;;;6.30;4.70;;;;;;;1.76;56.89;96722.25;5013055;28;20025;-52